sensor_id;sensor_type;location;lat;lon;timestamp;P1;durP1;ratioP1;P2;durP2;ratioP2
10711;SDS011;5407;51.234;6.804;2023-02-17T00:01:50;2.67;;;2.47;;
10711;SDS011;5407;51.234;6.804;2023-02-17T00:04:17;2.50;;;2.30;;
10711;SDS011;5407;51.234;6.804;2023-02-17T00:06:44;2.88;;;2.50;;
10711;SDS011;5407;51.234;6.804;2023-02-17T00:09:10;2.40;;;2.20;;
10711;SDS011;5407;51.234;6.804;2023-02-17T00:11:37;3.42;;;2.40;;
10711;SDS011;5407;51.234;6.804;2023-02-17T00:14:05;2.55;;;2.25;;
10711;SDS011;5407;51.234;6.804;2023-02-17T00:16:33;2.58;;;2.38;;
10711;SDS011;5407;51.234;6.804;2023-02-17T00:19:00;2.47;;;2.20;;
10711;SDS011;5407;51.234;6.804;2023-02-17T00:21:47;2.92;;;2.40;;
10711;SDS011;5407;51.234;6.804;2023-02-17T00:24:14;2.40;;;2.20;;
10711;SDS011;5407;51.234;6.804;2023-02-17T00:26:42;3.20;;;2.60;;
10711;SDS011;5407;51.234;6.804;2023-02-17T00:29:10;3.15;;;2.40;;
10711;SDS011;5407;51.234;6.804;2023-02-17T00:31:38;2.58;;;2.38;;
10711;SDS011;5407;51.234;6.804;2023-02-17T00:34:04;2.50;;;2.30;;
10711;SDS011;5407;51.234;6.804;2023-02-17T00:36:31;2.58;;;2.38;;
10711;SDS011;5407;51.234;6.804;2023-02-17T00:38:58;2.58;;;2.17;;
10711;SDS011;5407;51.234;6.804;2023-02-17T00:41:26;2.60;;;2.40;;
10711;SDS011;5407;51.234;6.804;2023-02-17T00:43:56;2.50;;;2.30;;
10711;SDS011;5407;51.234;6.804;2023-02-17T00:46:25;2.83;;;2.38;;
10711;SDS011;5407;51.234;6.804;2023-02-17T00:48:52;2.78;;;2.38;;
10711;SDS011;5407;51.234;6.804;2023-02-17T00:51:19;3.15;;;2.50;;
10711;SDS011;5407;51.234;6.804;2023-02-17T00:53:46;4.40;;;2.67;;
10711;SDS011;5407;51.234;6.804;2023-02-17T00:56:13;102.50;;;4.95;;
10711;SDS011;5407;51.234;6.804;2023-02-17T00:58:42;3.53;;;2.30;;
10711;SDS011;5407;51.234;6.804;2023-02-17T01:01:10;3.75;;;2.65;;
10711;SDS011;5407;51.234;6.804;2023-02-17T01:03:40;2.92;;;2.50;;
10711;SDS011;5407;51.234;6.804;2023-02-17T01:06:08;5.43;;;2.30;;
10711;SDS011;5407;51.234;6.804;2023-02-17T01:08:36;2.58;;;2.38;;
10711;SDS011;5407;51.234;6.804;2023-02-17T01:11:03;2.33;;;2.15;;
10711;SDS011;5407;51.234;6.804;2023-02-17T01:13:30;2.90;;;2.30;;
10711;SDS011;5407;51.234;6.804;2023-02-17T01:15:58;5.10;;;2.40;;
10711;SDS011;5407;51.234;6.804;2023-02-17T01:18:24;3.00;;;2.42;;
10711;SDS011;5407;51.234;6.804;2023-02-17T01:20:53;3.13;;;2.53;;
10711;SDS011;5407;51.234;6.804;2023-02-17T01:23:19;2.80;;;2.45;;
10711;SDS011;5407;51.234;6.804;2023-02-17T01:25:47;2.55;;;2.20;;
10711;SDS011;5407;51.234;6.804;2023-02-17T01:28:16;3.20;;;2.40;;
10711;SDS011;5407;51.234;6.804;2023-02-17T01:30:45;2.55;;;2.35;;
10711;SDS011;5407;51.234;6.804;2023-02-17T01:33:12;2.42;;;2.22;;
10711;SDS011;5407;51.234;6.804;2023-02-17T01:35:39;2.22;;;2.10;;
10711;SDS011;5407;51.234;6.804;2023-02-17T01:38:07;2.78;;;2.10;;
10711;SDS011;5407;51.234;6.804;2023-02-17T01:40:34;2.60;;;2.10;;
10711;SDS011;5407;51.234;6.804;2023-02-17T01:43:01;3.28;;;2.30;;
10711;SDS011;5407;51.234;6.804;2023-02-17T01:45:33;3.03;;;2.50;;
10711;SDS011;5407;51.234;6.804;2023-02-17T01:48:02;2.17;;;1.98;;
10711;SDS011;5407;51.234;6.804;2023-02-17T01:50:35;2.20;;;2.00;;
10711;SDS011;5407;51.234;6.804;2023-02-17T01:53:05;2.83;;;2.25;;
10711;SDS011;5407;51.234;6.804;2023-02-17T01:55:35;2.50;;;2.05;;
10711;SDS011;5407;51.234;6.804;2023-02-17T01:58:05;5.90;;;2.20;;
10711;SDS011;5407;51.234;6.804;2023-02-17T02:00:34;3.45;;;2.30;;
10711;SDS011;5407;51.234;6.804;2023-02-17T02:03:02;2.35;;;2.15;;
10711;SDS011;5407;51.234;6.804;2023-02-17T02:05:33;2.58;;;2.10;;
10711;SDS011;5407;51.234;6.804;2023-02-17T02:08:00;2.33;;;2.13;;
10711;SDS011;5407;51.234;6.804;2023-02-17T02:10:33;2.03;;;1.90;;
10711;SDS011;5407;51.234;6.804;2023-02-17T02:13:03;2.17;;;1.98;;
10711;SDS011;5407;51.234;6.804;2023-02-17T02:15:31;2.30;;;1.90;;
10711;SDS011;5407;51.234;6.804;2023-02-17T02:18:12;2.20;;;2.00;;
10711;SDS011;5407;51.234;6.804;2023-02-17T02:23:50;2.00;;;1.80;;
10711;SDS011;5407;51.234;6.804;2023-02-17T02:32:46;1.90;;;1.80;;
10711;SDS011;5407;51.234;6.804;2023-02-17T02:35:17;2.10;;;1.80;;
10711;SDS011;5407;51.234;6.804;2023-02-17T02:37:54;2.83;;;2.05;;
10711;SDS011;5407;51.234;6.804;2023-02-17T02:40:27;1.92;;;1.83;;
10711;SDS011;5407;51.234;6.804;2023-02-17T02:42:58;2.35;;;1.80;;
10711;SDS011;5407;51.234;6.804;2023-02-17T02:45:30;2.15;;;1.88;;
10711;SDS011;5407;51.234;6.804;2023-02-17T02:48:00;1.90;;;1.80;;
10711;SDS011;5407;51.234;6.804;2023-02-17T02:50:32;1.90;;;1.80;;
10711;SDS011;5407;51.234;6.804;2023-02-17T02:53:17;3.33;;;1.90;;
10711;SDS011;5407;51.234;6.804;2023-02-17T02:55:59;1.80;;;1.70;;
10711;SDS011;5407;51.234;6.804;2023-02-17T02:58:35;1.90;;;1.80;;
10711;SDS011;5407;51.234;6.804;2023-02-17T03:01:11;1.70;;;1.60;;
10711;SDS011;5407;51.234;6.804;2023-02-17T03:03:45;1.67;;;1.48;;
10711;SDS011;5407;51.234;6.804;2023-02-17T03:06:21;1.85;;;1.75;;
10711;SDS011;5407;51.234;6.804;2023-02-17T03:08:55;1.80;;;1.70;;
10711;SDS011;5407;51.234;6.804;2023-02-17T03:11:27;3.00;;;1.92;;
10711;SDS011;5407;51.234;6.804;2023-02-17T03:14:01;1.80;;;1.70;;
10711;SDS011;5407;51.234;6.804;2023-02-17T03:16:29;1.90;;;1.80;;
10711;SDS011;5407;51.234;6.804;2023-02-17T03:18:58;1.73;;;1.63;;
10711;SDS011;5407;51.234;6.804;2023-02-17T03:21:27;1.63;;;1.52;;
10711;SDS011;5407;51.234;6.804;2023-02-17T03:24:00;1.60;;;1.50;;
10711;SDS011;5407;51.234;6.804;2023-02-17T03:26:27;1.90;;;1.80;;
10711;SDS011;5407;51.234;6.804;2023-02-17T03:28:55;2.17;;;1.70;;
10711;SDS011;5407;51.234;6.804;2023-02-17T03:31:21;1.50;;;1.40;;
10711;SDS011;5407;51.234;6.804;2023-02-17T03:33:49;1.73;;;1.60;;
10711;SDS011;5407;51.234;6.804;2023-02-17T03:36:17;1.60;;;1.50;;
10711;SDS011;5407;51.234;6.804;2023-02-17T03:38:44;1.60;;;1.50;;
10711;SDS011;5407;51.234;6.804;2023-02-17T03:41:11;1.75;;;1.65;;
10711;SDS011;5407;51.234;6.804;2023-02-17T03:43:38;1.85;;;1.75;;
10711;SDS011;5407;51.234;6.804;2023-02-17T03:46:09;1.90;;;1.80;;
10711;SDS011;5407;51.234;6.804;2023-02-17T03:48:36;1.90;;;1.80;;
10711;SDS011;5407;51.234;6.804;2023-02-17T03:51:08;2.05;;;1.90;;
10711;SDS011;5407;51.234;6.804;2023-02-17T03:53:38;1.60;;;1.50;;
10711;SDS011;5407;51.234;6.804;2023-02-17T03:56:06;2.15;;;1.80;;
10711;SDS011;5407;51.234;6.804;2023-02-17T03:58:33;1.70;;;1.60;;
10711;SDS011;5407;51.234;6.804;2023-02-17T04:01:00;1.70;;;1.60;;
10711;SDS011;5407;51.234;6.804;2023-02-17T04:03:27;1.70;;;1.60;;
10711;SDS011;5407;51.234;6.804;2023-02-17T04:05:53;2.13;;;1.63;;
10711;SDS011;5407;51.234;6.804;2023-02-17T04:08:20;1.58;;;1.48;;
10711;SDS011;5407;51.234;6.804;2023-02-17T04:10:51;1.80;;;1.70;;
10711;SDS011;5407;51.234;6.804;2023-02-17T04:13:18;1.63;;;1.52;;
10711;SDS011;5407;51.234;6.804;2023-02-17T04:15:45;1.83;;;1.70;;
10711;SDS011;5407;51.234;6.804;2023-02-17T04:18:12;1.50;;;1.40;;
10711;SDS011;5407;51.234;6.804;2023-02-17T04:20:39;1.80;;;1.70;;
10711;SDS011;5407;51.234;6.804;2023-02-17T04:23:06;1.92;;;1.75;;
10711;SDS011;5407;51.234;6.804;2023-02-17T04:25:33;1.60;;;1.50;;
10711;SDS011;5407;51.234;6.804;2023-02-17T04:28:02;1.60;;;1.50;;
10711;SDS011;5407;51.234;6.804;2023-02-17T04:30:29;1.77;;;1.67;;
10711;SDS011;5407;51.234;6.804;2023-02-17T04:32:56;1.70;;;1.60;;
10711;SDS011;5407;51.234;6.804;2023-02-17T04:35:24;1.65;;;1.55;;
10711;SDS011;5407;51.234;6.804;2023-02-17T04:37:50;1.45;;;1.40;;
10711;SDS011;5407;51.234;6.804;2023-02-17T04:40:18;1.50;;;1.40;;
10711;SDS011;5407;51.234;6.804;2023-02-17T04:42:45;1.70;;;1.60;;
10711;SDS011;5407;51.234;6.804;2023-02-17T04:45:13;1.60;;;1.50;;
10711;SDS011;5407;51.234;6.804;2023-02-17T04:47:40;1.67;;;1.58;;
10711;SDS011;5407;51.234;6.804;2023-02-17T04:50:07;2.00;;;1.80;;
10711;SDS011;5407;51.234;6.804;2023-02-17T04:52:35;2.45;;;1.58;;
10711;SDS011;5407;51.234;6.804;2023-02-17T04:55:02;1.77;;;1.67;;
10711;SDS011;5407;51.234;6.804;2023-02-17T04:57:30;1.60;;;1.50;;
10711;SDS011;5407;51.234;6.804;2023-02-17T04:59:57;1.60;;;1.50;;
10711;SDS011;5407;51.234;6.804;2023-02-17T05:02:25;1.90;;;1.70;;
10711;SDS011;5407;51.234;6.804;2023-02-17T05:04:52;1.60;;;1.50;;
10711;SDS011;5407;51.234;6.804;2023-02-17T05:07:19;2.55;;;1.70;;
10711;SDS011;5407;51.234;6.804;2023-02-17T05:09:46;1.60;;;1.50;;
10711;SDS011;5407;51.234;6.804;2023-02-17T05:12:13;1.77;;;1.67;;
10711;SDS011;5407;51.234;6.804;2023-02-17T05:14:40;1.80;;;1.70;;
10711;SDS011;5407;51.234;6.804;2023-02-17T05:17:07;1.60;;;1.50;;
10711;SDS011;5407;51.234;6.804;2023-02-17T05:19:36;1.63;;;1.52;;
10711;SDS011;5407;51.234;6.804;2023-02-17T05:22:02;1.70;;;1.60;;
10711;SDS011;5407;51.234;6.804;2023-02-17T05:24:29;1.58;;;1.48;;
10711;SDS011;5407;51.234;6.804;2023-02-17T05:26:56;1.90;;;1.80;;
10711;SDS011;5407;51.234;6.804;2023-02-17T05:29:24;1.83;;;1.70;;
10711;SDS011;5407;51.234;6.804;2023-02-17T05:31:50;1.60;;;1.50;;
10711;SDS011;5407;51.234;6.804;2023-02-17T05:34:17;1.77;;;1.67;;
10711;SDS011;5407;51.234;6.804;2023-02-17T05:36:45;1.60;;;1.50;;
10711;SDS011;5407;51.234;6.804;2023-02-17T05:39:12;1.70;;;1.60;;
10711;SDS011;5407;51.234;6.804;2023-02-17T05:41:39;1.50;;;1.40;;
10711;SDS011;5407;51.234;6.804;2023-02-17T05:44:06;1.85;;;1.50;;
10711;SDS011;5407;51.234;6.804;2023-02-17T05:46:33;1.60;;;1.50;;
10711;SDS011;5407;51.234;6.804;2023-02-17T05:49:00;1.50;;;1.40;;
10711;SDS011;5407;51.234;6.804;2023-02-17T05:51:26;1.58;;;1.48;;
10711;SDS011;5407;51.234;6.804;2023-02-17T05:53:55;1.58;;;1.42;;
10711;SDS011;5407;51.234;6.804;2023-02-17T05:56:21;1.55;;;1.45;;
10711;SDS011;5407;51.234;6.804;2023-02-17T05:58:48;1.60;;;1.50;;
10711;SDS011;5407;51.234;6.804;2023-02-17T06:01:15;1.35;;;1.30;;
10711;SDS011;5407;51.234;6.804;2023-02-17T06:03:42;1.50;;;1.40;;
10711;SDS011;5407;51.234;6.804;2023-02-17T06:06:08;1.45;;;1.30;;
10711;SDS011;5407;51.234;6.804;2023-02-17T06:08:35;1.50;;;1.40;;
10711;SDS011;5407;51.234;6.804;2023-02-17T06:11:04;1.40;;;1.30;;
10711;SDS011;5407;51.234;6.804;2023-02-17T06:13:30;1.50;;;1.40;;
10711;SDS011;5407;51.234;6.804;2023-02-17T06:15:57;1.23;;;1.23;;
10711;SDS011;5407;51.234;6.804;2023-02-17T06:18:24;1.50;;;1.40;;
10711;SDS011;5407;51.234;6.804;2023-02-17T06:20:53;1.40;;;1.30;;
10711;SDS011;5407;51.234;6.804;2023-02-17T06:23:21;1.60;;;1.50;;
10711;SDS011;5407;51.234;6.804;2023-02-17T06:25:47;1.50;;;1.40;;
10711;SDS011;5407;51.234;6.804;2023-02-17T06:28:16;1.52;;;1.42;;
10711;SDS011;5407;51.234;6.804;2023-02-17T06:30:43;1.50;;;1.40;;
10711;SDS011;5407;51.234;6.804;2023-02-17T06:33:10;1.50;;;1.40;;
10711;SDS011;5407;51.234;6.804;2023-02-17T06:35:37;1.50;;;1.40;;
10711;SDS011;5407;51.234;6.804;2023-02-17T06:38:04;1.45;;;1.35;;
10711;SDS011;5407;51.234;6.804;2023-02-17T06:40:31;1.45;;;1.38;;
10711;SDS011;5407;51.234;6.804;2023-02-17T06:42:57;2.08;;;1.52;;
10711;SDS011;5407;51.234;6.804;2023-02-17T06:45:26;1.33;;;1.30;;
10711;SDS011;5407;51.234;6.804;2023-02-17T06:47:52;1.55;;;1.45;;
10711;SDS011;5407;51.234;6.804;2023-02-17T06:50:19;1.70;;;1.60;;
10711;SDS011;5407;51.234;6.804;2023-02-17T06:52:46;1.73;;;1.40;;
10711;SDS011;5407;51.234;6.804;2023-02-17T06:55:13;1.42;;;1.30;;
10711;SDS011;5407;51.234;6.804;2023-02-17T06:57:40;1.25;;;1.23;;
10711;SDS011;5407;51.234;6.804;2023-02-17T07:00:07;1.23;;;1.20;;
10711;SDS011;5407;51.234;6.804;2023-02-17T07:02:37;4.00;;;1.50;;
10711;SDS011;5407;51.234;6.804;2023-02-17T07:05:05;4.30;;;1.70;;
10711;SDS011;5407;51.234;6.804;2023-02-17T07:07:32;2.33;;;1.67;;
10711;SDS011;5407;51.234;6.804;2023-02-17T07:09:59;4.22;;;1.67;;
10711;SDS011;5407;51.234;6.804;2023-02-17T07:12:27;4.80;;;1.60;;
10711;SDS011;5407;51.234;6.804;2023-02-17T07:14:54;2.13;;;1.50;;
10711;SDS011;5407;51.234;6.804;2023-02-17T07:17:21;3.22;;;1.40;;
10711;SDS011;5407;51.234;6.804;2023-02-17T07:19:50;2.25;;;1.40;;
10711;SDS011;5407;51.234;6.804;2023-02-17T07:22:16;7.13;;;2.30;;
10711;SDS011;5407;51.234;6.804;2023-02-17T07:24:43;11.55;;;3.92;;
10711;SDS011;5407;51.234;6.804;2023-02-17T07:27:10;19.23;;;4.05;;
10711;SDS011;5407;51.234;6.804;2023-02-17T07:29:37;26.95;;;3.70;;
10711;SDS011;5407;51.234;6.804;2023-02-17T07:32:03;8.73;;;2.85;;
10711;SDS011;5407;51.234;6.804;2023-02-17T07:34:30;9.68;;;3.13;;
10711;SDS011;5407;51.234;6.804;2023-02-17T07:36:58;6.93;;;2.72;;
10711;SDS011;5407;51.234;6.804;2023-02-17T07:39:25;5.68;;;2.70;;
10711;SDS011;5407;51.234;6.804;2023-02-17T07:41:52;9.05;;;3.00;;
10711;SDS011;5407;51.234;6.804;2023-02-17T07:44:24;8.38;;;2.75;;
10711;SDS011;5407;51.234;6.804;2023-02-17T07:46:51;6.85;;;2.97;;
10711;SDS011;5407;51.234;6.804;2023-02-17T07:49:18;6.18;;;2.85;;
10711;SDS011;5407;51.234;6.804;2023-02-17T07:51:45;6.85;;;2.58;;
10711;SDS011;5407;51.234;6.804;2023-02-17T07:54:13;8.60;;;2.50;;
10711;SDS011;5407;51.234;6.804;2023-02-17T07:56:40;7.22;;;2.65;;
10711;SDS011;5407;51.234;6.804;2023-02-17T07:59:07;5.78;;;2.47;;
10711;SDS011;5407;51.234;6.804;2023-02-17T08:01:34;6.72;;;2.38;;
10711;SDS011;5407;51.234;6.804;2023-02-17T08:04:01;4.25;;;2.20;;
10711;SDS011;5407;51.234;6.804;2023-02-17T08:06:28;3.20;;;2.22;;
10711;SDS011;5407;51.234;6.804;2023-02-17T08:08:55;10.23;;;2.33;;
10711;SDS011;5407;51.234;6.804;2023-02-17T08:11:41;6.10;;;2.33;;
10711;SDS011;5407;51.234;6.804;2023-02-17T08:14:22;5.68;;;2.30;;
10711;SDS011;5407;51.234;6.804;2023-02-17T08:16:50;142.32;;;7.28;;
10711;SDS011;5407;51.234;6.804;2023-02-17T08:19:18;15.95;;;2.40;;
10711;SDS011;5407;51.234;6.804;2023-02-17T08:21:45;5.18;;;2.30;;
10711;SDS011;5407;51.234;6.804;2023-02-17T08:24:13;3.38;;;2.20;;
10711;SDS011;5407;51.234;6.804;2023-02-17T08:26:42;4.10;;;2.03;;
10711;SDS011;5407;51.234;6.804;2023-02-17T08:29:08;6.88;;;2.20;;
10711;SDS011;5407;51.234;6.804;2023-02-17T08:31:36;7.53;;;2.20;;
10711;SDS011;5407;51.234;6.804;2023-02-17T08:34:03;6.63;;;2.17;;
10711;SDS011;5407;51.234;6.804;2023-02-17T08:36:31;3.13;;;2.20;;
10711;SDS011;5407;51.234;6.804;2023-02-17T08:38:58;4.28;;;2.20;;
10711;SDS011;5407;51.234;6.804;2023-02-17T08:41:27;6.35;;;2.35;;
10711;SDS011;5407;51.234;6.804;2023-02-17T08:43:57;5.05;;;2.08;;
10711;SDS011;5407;51.234;6.804;2023-02-17T08:46:25;2.20;;;2.00;;
10711;SDS011;5407;51.234;6.804;2023-02-17T08:48:53;2.80;;;1.98;;
10711;SDS011;5407;51.234;6.804;2023-02-17T08:51:22;3.20;;;1.80;;
10711;SDS011;5407;51.234;6.804;2023-02-17T08:53:50;3.65;;;1.83;;
10711;SDS011;5407;51.234;6.804;2023-02-17T08:56:19;2.40;;;1.80;;
10711;SDS011;5407;51.234;6.804;2023-02-17T08:58:46;2.53;;;2.00;;
10711;SDS011;5407;51.234;6.804;2023-02-17T09:01:14;4.55;;;2.20;;
10711;SDS011;5407;51.234;6.804;2023-02-17T09:03:43;1.92;;;1.75;;
10711;SDS011;5407;51.234;6.804;2023-02-17T09:06:10;2.47;;;1.88;;
10711;SDS011;5407;51.234;6.804;2023-02-17T09:08:39;3.88;;;2.00;;
10711;SDS011;5407;51.234;6.804;2023-02-17T09:11:07;2.53;;;1.90;;
10711;SDS011;5407;51.234;6.804;2023-02-17T09:13:34;3.65;;;1.90;;
10711;SDS011;5407;51.234;6.804;2023-02-17T09:16:02;2.17;;;1.80;;
10711;SDS011;5407;51.234;6.804;2023-02-17T09:18:31;2.15;;;1.90;;
10711;SDS011;5407;51.234;6.804;2023-02-17T09:20:57;2.05;;;1.70;;
10711;SDS011;5407;51.234;6.804;2023-02-17T09:23:27;2.97;;;1.98;;
10711;SDS011;5407;51.234;6.804;2023-02-17T09:25:59;3.63;;;2.45;;
10711;SDS011;5407;51.234;6.804;2023-02-17T09:28:28;5.25;;;3.13;;
10711;SDS011;5407;51.234;6.804;2023-02-17T09:30:55;4.35;;;2.70;;
10711;SDS011;5407;51.234;6.804;2023-02-17T09:33:22;5.65;;;3.22;;
10711;SDS011;5407;51.234;6.804;2023-02-17T09:35:50;4.13;;;2.65;;
10711;SDS011;5407;51.234;6.804;2023-02-17T09:38:18;4.38;;;2.75;;
10711;SDS011;5407;51.234;6.804;2023-02-17T09:40:46;4.30;;;2.60;;
10711;SDS011;5407;51.234;6.804;2023-02-17T09:43:15;3.65;;;2.60;;
10711;SDS011;5407;51.234;6.804;2023-02-17T09:45:45;3.47;;;2.45;;
10711;SDS011;5407;51.234;6.804;2023-02-17T09:48:16;2.95;;;2.40;;
10711;SDS011;5407;51.234;6.804;2023-02-17T09:50:47;3.03;;;2.38;;
10711;SDS011;5407;51.234;6.804;2023-02-17T09:53:24;7.30;;;2.58;;
10711;SDS011;5407;51.234;6.804;2023-02-17T09:55:56;4.75;;;2.30;;
10711;SDS011;5407;51.234;6.804;2023-02-17T09:58:25;3.55;;;2.20;;
10711;SDS011;5407;51.234;6.804;2023-02-17T10:00:58;2.60;;;2.20;;
10711;SDS011;5407;51.234;6.804;2023-02-17T10:03:29;2.47;;;1.90;;
10711;SDS011;5407;51.234;6.804;2023-02-17T10:06:03;3.20;;;2.40;;
10711;SDS011;5407;51.234;6.804;2023-02-17T10:08:39;2.75;;;2.20;;
10711;SDS011;5407;51.234;6.804;2023-02-17T10:11:13;2.60;;;2.00;;
10711;SDS011;5407;51.234;6.804;2023-02-17T10:13:47;2.47;;;2.00;;
10711;SDS011;5407;51.234;6.804;2023-02-17T10:16:18;2.65;;;2.03;;
10711;SDS011;5407;51.234;6.804;2023-02-17T10:18:50;2.47;;;1.95;;
10711;SDS011;5407;51.234;6.804;2023-02-17T10:21:25;2.65;;;1.90;;
10711;SDS011;5407;51.234;6.804;2023-02-17T10:23:53;2.67;;;1.85;;
10711;SDS011;5407;51.234;6.804;2023-02-17T10:26:25;2.30;;;1.92;;
10711;SDS011;5407;51.234;6.804;2023-02-17T10:29:11;1.65;;;1.55;;
10711;SDS011;5407;51.234;6.804;2023-02-17T10:31:45;2.28;;;1.70;;
10711;SDS011;5407;51.234;6.804;2023-02-17T10:34:17;2.25;;;1.60;;
10711;SDS011;5407;51.234;6.804;2023-02-17T10:36:54;2.15;;;1.98;;
10711;SDS011;5407;51.234;6.804;2023-02-17T10:39:30;2.00;;;1.77;;
10711;SDS011;5407;51.234;6.804;2023-02-17T10:42:08;1.70;;;1.60;;
10711;SDS011;5407;51.234;6.804;2023-02-17T10:44:42;1.90;;;1.60;;
10711;SDS011;5407;51.234;6.804;2023-02-17T10:47:09;2.10;;;1.75;;
10711;SDS011;5407;51.234;6.804;2023-02-17T10:49:38;2.05;;;1.80;;
10711;SDS011;5407;51.234;6.804;2023-02-17T10:52:12;1.95;;;1.60;;
10711;SDS011;5407;51.234;6.804;2023-02-17T10:54:41;1.70;;;1.60;;
10711;SDS011;5407;51.234;6.804;2023-02-17T10:57:12;1.85;;;1.63;;
10711;SDS011;5407;51.234;6.804;2023-02-17T10:59:42;2.08;;;1.90;;
10711;SDS011;5407;51.234;6.804;2023-02-17T11:02:15;2.40;;;1.75;;
10711;SDS011;5407;51.234;6.804;2023-02-17T11:04:45;1.58;;;1.42;;
10711;SDS011;5407;51.234;6.804;2023-02-17T11:07:15;1.67;;;1.48;;
10711;SDS011;5407;51.234;6.804;2023-02-17T11:09:45;2.38;;;1.85;;
10711;SDS011;5407;51.234;6.804;2023-02-17T11:12:14;1.73;;;1.63;;
10711;SDS011;5407;51.234;6.804;2023-02-17T11:14:47;1.80;;;1.70;;
10711;SDS011;5407;51.234;6.804;2023-02-17T11:17:19;2.15;;;1.60;;
10711;SDS011;5407;51.234;6.804;2023-02-17T11:19:55;1.58;;;1.48;;
10711;SDS011;5407;51.234;6.804;2023-02-17T11:22:32;1.60;;;1.50;;
10711;SDS011;5407;51.234;6.804;2023-02-17T11:25:02;1.60;;;1.50;;
10711;SDS011;5407;51.234;6.804;2023-02-17T11:27:31;1.67;;;1.58;;
10711;SDS011;5407;51.234;6.804;2023-02-17T11:30:12;1.77;;;1.50;;
10711;SDS011;5407;51.234;6.804;2023-02-17T11:32:42;1.77;;;1.65;;
10711;SDS011;5407;51.234;6.804;2023-02-17T11:35:18;1.83;;;1.63;;
10711;SDS011;5407;51.234;6.804;2023-02-17T11:37:50;1.67;;;1.58;;
10711;SDS011;5407;51.234;6.804;2023-02-17T11:40:22;1.63;;;1.52;;
10711;SDS011;5407;51.234;6.804;2023-02-17T11:42:54;1.60;;;1.50;;
10711;SDS011;5407;51.234;6.804;2023-02-17T11:45:22;1.60;;;1.50;;
10711;SDS011;5407;51.234;6.804;2023-02-17T11:47:55;1.60;;;1.50;;
10711;SDS011;5407;51.234;6.804;2023-02-17T11:50:31;1.58;;;1.48;;
10711;SDS011;5407;51.234;6.804;2023-02-17T11:53:10;2.67;;;1.30;;
10711;SDS011;5407;51.234;6.804;2023-02-17T11:55:49;1.55;;;1.40;;
10711;SDS011;5407;51.234;6.804;2023-02-17T11:58:26;1.50;;;1.40;;
10711;SDS011;5407;51.234;6.804;2023-02-17T12:01:05;1.38;;;1.27;;
10711;SDS011;5407;51.234;6.804;2023-02-17T12:03:42;1.73;;;1.63;;
10711;SDS011;5407;51.234;6.804;2023-02-17T12:06:23;1.77;;;1.60;;
10711;SDS011;5407;51.234;6.804;2023-02-17T12:09:05;1.60;;;1.50;;
10711;SDS011;5407;51.234;6.804;2023-02-17T12:11:39;1.45;;;1.35;;
10711;SDS011;5407;51.234;6.804;2023-02-17T12:14:18;1.40;;;1.30;;
10711;SDS011;5407;51.234;6.804;2023-02-17T12:17:01;1.70;;;1.60;;
10711;SDS011;5407;51.234;6.804;2023-02-17T12:19:37;1.85;;;1.50;;
10711;SDS011;5407;51.234;6.804;2023-02-17T12:22:14;2.92;;;1.50;;
10711;SDS011;5407;51.234;6.804;2023-02-17T12:24:47;1.52;;;1.38;;
10711;SDS011;5407;51.234;6.804;2023-02-17T12:27:27;1.40;;;1.30;;
10711;SDS011;5407;51.234;6.804;2023-02-17T12:30:13;1.42;;;1.33;;
10711;SDS011;5407;51.234;6.804;2023-02-17T12:32:58;1.40;;;1.30;;
10711;SDS011;5407;51.234;6.804;2023-02-17T12:35:48;1.63;;;1.30;;
10711;SDS011;5407;51.234;6.804;2023-02-17T12:38:21;1.42;;;1.33;;
10711;SDS011;5407;51.234;6.804;2023-02-17T12:40:53;1.30;;;1.20;;
10711;SDS011;5407;51.234;6.804;2023-02-17T12:43:24;1.40;;;1.30;;
10711;SDS011;5407;51.234;6.804;2023-02-17T12:45:56;1.23;;;1.20;;
10711;SDS011;5407;51.234;6.804;2023-02-17T12:48:28;1.50;;;1.40;;
10711;SDS011;5407;51.234;6.804;2023-02-17T12:51:02;1.52;;;1.30;;
10711;SDS011;5407;51.234;6.804;2023-02-17T12:53:38;1.40;;;1.20;;
10711;SDS011;5407;51.234;6.804;2023-02-17T12:59:26;1.58;;;1.40;;
10711;SDS011;5407;51.234;6.804;2023-02-17T13:01:59;1.55;;;1.30;;
10711;SDS011;5407;51.234;6.804;2023-02-17T13:04:29;1.52;;;1.42;;
10711;SDS011;5407;51.234;6.804;2023-02-17T13:09:46;1.40;;;1.30;;
10711;SDS011;5407;51.234;6.804;2023-02-17T13:15:03;1.50;;;1.40;;
10711;SDS011;5407;51.234;6.804;2023-02-17T13:17:33;1.25;;;1.20;;
10711;SDS011;5407;51.234;6.804;2023-02-17T13:23:02;1.38;;;1.27;;
10711;SDS011;5407;51.234;6.804;2023-02-17T13:25:34;1.40;;;1.30;;
10711;SDS011;5407;51.234;6.804;2023-02-17T13:28:02;1.30;;;1.20;;
10711;SDS011;5407;51.234;6.804;2023-02-17T13:30:44;1.50;;;1.40;;
10711;SDS011;5407;51.234;6.804;2023-02-17T13:33:26;1.17;;;1.17;;
10711;SDS011;5407;51.234;6.804;2023-02-17T13:35:54;1.30;;;1.25;;
10711;SDS011;5407;51.234;6.804;2023-02-17T13:38:24;1.00;;;1.00;;
10711;SDS011;5407;51.234;6.804;2023-02-17T13:40:56;1.52;;;1.13;;
10711;SDS011;5407;51.234;6.804;2023-02-17T13:43:26;1.40;;;1.30;;
10711;SDS011;5407;51.234;6.804;2023-02-17T13:45:58;1.40;;;1.30;;
10711;SDS011;5407;51.234;6.804;2023-02-17T13:48:28;2.53;;;1.40;;
10711;SDS011;5407;51.234;6.804;2023-02-17T13:50:56;1.48;;;1.23;;
10711;SDS011;5407;51.234;6.804;2023-02-17T13:53:26;1.20;;;1.10;;
10711;SDS011;5407;51.234;6.804;2023-02-17T13:55:55;1.23;;;1.13;;
10711;SDS011;5407;51.234;6.804;2023-02-17T13:58:25;1.13;;;1.10;;
10711;SDS011;5407;51.234;6.804;2023-02-17T14:00:54;1.08;;;1.08;;
10711;SDS011;5407;51.234;6.804;2023-02-17T14:03:24;1.40;;;1.30;;
10711;SDS011;5407;51.234;6.804;2023-02-17T14:05:52;1.33;;;1.23;;
10711;SDS011;5407;51.234;6.804;2023-02-17T14:08:25;1.30;;;1.20;;
10711;SDS011;5407;51.234;6.804;2023-02-17T14:10:55;1.30;;;1.20;;
10711;SDS011;5407;51.234;6.804;2023-02-17T14:13:24;1.58;;;1.48;;
10711;SDS011;5407;51.234;6.804;2023-02-17T14:15:52;1.10;;;1.05;;
10711;SDS011;5407;51.234;6.804;2023-02-17T14:18:27;1.20;;;1.00;;
10711;SDS011;5407;51.234;6.804;2023-02-17T14:21:01;1.10;;;1.10;;
10711;SDS011;5407;51.234;6.804;2023-02-17T14:23:39;1.00;;;1.00;;
10711;SDS011;5407;51.234;6.804;2023-02-17T14:26:11;1.30;;;1.20;;
10711;SDS011;5407;51.234;6.804;2023-02-17T14:28:39;1.20;;;1.10;;
10711;SDS011;5407;51.234;6.804;2023-02-17T14:31:07;1.08;;;1.00;;
10711;SDS011;5407;51.234;6.804;2023-02-17T14:33:36;1.40;;;1.30;;
10711;SDS011;5407;51.234;6.804;2023-02-17T14:36:04;5.75;;;1.50;;
10711;SDS011;5407;51.234;6.804;2023-02-17T14:38:35;6.82;;;1.20;;
10711;SDS011;5407;51.234;6.804;2023-02-17T14:41:06;3.03;;;1.10;;
10711;SDS011;5407;51.234;6.804;2023-02-17T14:43:34;2.45;;;1.17;;
10711;SDS011;5407;51.234;6.804;2023-02-17T14:46:01;4.53;;;1.17;;
10711;SDS011;5407;51.234;6.804;2023-02-17T14:48:28;1.02;;;1.00;;
10711;SDS011;5407;51.234;6.804;2023-02-17T14:50:56;1.08;;;1.00;;
10711;SDS011;5407;51.234;6.804;2023-02-17T14:53:24;1.55;;;0.80;;
10711;SDS011;5407;51.234;6.804;2023-02-17T14:55:54;1.42;;;1.15;;
10711;SDS011;5407;51.234;6.804;2023-02-17T14:58:25;1.45;;;1.00;;
10711;SDS011;5407;51.234;6.804;2023-02-17T15:00:54;1.20;;;1.10;;
10711;SDS011;5407;51.234;6.804;2023-02-17T15:03:20;1.27;;;1.10;;
10711;SDS011;5407;51.234;6.804;2023-02-17T15:05:47;3.13;;;1.10;;
10711;SDS011;5407;51.234;6.804;2023-02-17T15:08:17;1.17;;;1.08;;
10711;SDS011;5407;51.234;6.804;2023-02-17T15:10:46;1.00;;;1.00;;
10711;SDS011;5407;51.234;6.804;2023-02-17T15:13:14;1.33;;;1.15;;
10711;SDS011;5407;51.234;6.804;2023-02-17T15:15:42;1.75;;;0.95;;
10711;SDS011;5407;51.234;6.804;2023-02-17T15:18:11;1.00;;;1.00;;
10711;SDS011;5407;51.234;6.804;2023-02-17T15:20:39;2.05;;;1.00;;
10711;SDS011;5407;51.234;6.804;2023-02-17T15:23:09;0.85;;;0.85;;
10711;SDS011;5407;51.234;6.804;2023-02-17T15:25:40;1.70;;;0.80;;
10711;SDS011;5407;51.234;6.804;2023-02-17T15:28:07;0.82;;;0.82;;
10711;SDS011;5407;51.234;6.804;2023-02-17T15:30:38;0.95;;;0.93;;
10711;SDS011;5407;51.234;6.804;2023-02-17T15:33:05;1.52;;;1.00;;
10711;SDS011;5407;51.234;6.804;2023-02-17T15:35:36;1.23;;;1.13;;
10711;SDS011;5407;51.234;6.804;2023-02-17T15:38:04;1.10;;;1.00;;